sensor_id;sensor_type;location;lat;lon;timestamp;P1;durP1;ratioP1;P2;durP2;ratioP2
71838;SDS011;59687;37.520;15.068;2022-11-15T00:02:03;3.40;;;1.08;;
71838;SDS011;59687;37.520;15.068;2022-11-15T00:04:49;4.47;;;1.20;;
71838;SDS011;59687;37.520;15.068;2022-11-15T00:07:35;5.57;;;1.20;;
71838;SDS011;59687;37.520;15.068;2022-11-15T00:10:38;4.25;;;1.60;;
71838;SDS011;59687;37.520;15.068;2022-11-15T00:13:23;7.72;;;1.40;;
71838;SDS011;59687;37.520;15.068;2022-11-15T00:16:09;3.40;;;1.30;;
71838;SDS011;59687;37.520;15.068;2022-11-15T00:18:57;3.55;;;1.48;;
71838;SDS011;59687;37.520;15.068;2022-11-15T00:21:43;3.80;;;1.00;;
71838;SDS011;59687;37.520;15.068;2022-11-15T00:24:28;4.70;;;1.33;;
71838;SDS011;59687;37.520;15.068;2022-11-15T00:27:14;4.30;;;1.15;;
71838;SDS011;59687;37.520;15.068;2022-11-15T00:30:00;5.45;;;1.30;;
71838;SDS011;59687;37.520;15.068;2022-11-15T00:32:46;4.38;;;1.20;;
71838;SDS011;59687;37.520;15.068;2022-11-15T00:35:32;4.37;;;1.37;;
71838;SDS011;59687;37.520;15.068;2022-11-15T00:38:18;3.83;;;1.40;;
71838;SDS011;59687;37.520;15.068;2022-11-15T00:41:04;5.40;;;1.30;;
71838;SDS011;59687;37.520;15.068;2022-11-15T00:43:52;5.45;;;1.40;;
71838;SDS011;59687;37.520;15.068;2022-11-15T00:46:38;5.88;;;1.60;;
71838;SDS011;59687;37.520;15.068;2022-11-15T00:49:26;3.93;;;1.33;;
71838;SDS011;59687;37.520;15.068;2022-11-15T00:52:13;5.65;;;1.60;;
71838;SDS011;59687;37.520;15.068;2022-11-15T00:54:58;4.78;;;1.85;;
71838;SDS011;59687;37.520;15.068;2022-11-15T00:57:43;5.22;;;1.60;;
71838;SDS011;59687;37.520;15.068;2022-11-15T01:00:29;5.43;;;1.80;;
71838;SDS011;59687;37.520;15.068;2022-11-15T01:03:15;4.20;;;1.50;;
71838;SDS011;59687;37.520;15.068;2022-11-15T01:06:00;4.38;;;1.20;;
71838;SDS011;59687;37.520;15.068;2022-11-15T01:08:49;4.03;;;1.42;;
71838;SDS011;59687;37.520;15.068;2022-11-15T01:11:36;5.22;;;1.50;;
71838;SDS011;59687;37.520;15.068;2022-11-15T01:14:22;4.50;;;1.50;;
71838;SDS011;59687;37.520;15.068;2022-11-15T01:17:09;5.20;;;2.00;;
71838;SDS011;59687;37.520;15.068;2022-11-15T01:19:56;4.95;;;1.80;;
71838;SDS011;59687;37.520;15.068;2022-11-15T01:22:42;3.95;;;1.45;;
71838;SDS011;59687;37.520;15.068;2022-11-15T01:25:28;4.72;;;2.00;;
71838;SDS011;59687;37.520;15.068;2022-11-15T01:28:13;4.50;;;1.77;;
71838;SDS011;59687;37.520;15.068;2022-11-15T01:30:59;5.50;;;2.43;;
71838;SDS011;59687;37.520;15.068;2022-11-15T01:33:46;4.97;;;1.83;;
71838;SDS011;59687;37.520;15.068;2022-11-15T01:36:32;5.80;;;2.00;;
71838;SDS011;59687;37.520;15.068;2022-11-15T01:39:17;4.60;;;1.77;;
71838;SDS011;59687;37.520;15.068;2022-11-15T01:42:04;5.38;;;2.20;;
71838;SDS011;59687;37.520;15.068;2022-11-15T01:44:50;4.73;;;2.13;;
71838;SDS011;59687;37.520;15.068;2022-11-15T01:47:37;4.95;;;2.20;;
71838;SDS011;59687;37.520;15.068;2022-11-15T01:50:29;5.20;;;2.33;;
71838;SDS011;59687;37.520;15.068;2022-11-15T01:53:17;4.45;;;2.20;;
71838;SDS011;59687;37.520;15.068;2022-11-15T01:56:07;8.10;;;2.30;;
71838;SDS011;59687;37.520;15.068;2022-11-15T01:58:57;4.57;;;2.07;;
71838;SDS011;59687;37.520;15.068;2022-11-15T02:01:45;5.03;;;2.08;;
71838;SDS011;59687;37.520;15.068;2022-11-15T02:04:35;4.90;;;1.98;;
71838;SDS011;59687;37.520;15.068;2022-11-15T02:07:24;6.20;;;2.22;;
71838;SDS011;59687;37.520;15.068;2022-11-15T02:10:19;4.97;;;2.20;;
71838;SDS011;59687;37.520;15.068;2022-11-15T02:13:06;5.97;;;2.33;;
71838;SDS011;59687;37.520;15.068;2022-11-15T02:15:58;6.82;;;2.50;;
71838;SDS011;59687;37.520;15.068;2022-11-15T02:34:59;5.35;;;3.17;;
71838;SDS011;59687;37.520;15.068;2022-11-15T02:38:13;5.82;;;2.30;;
71838;SDS011;59687;37.520;15.068;2022-11-15T02:41:35;6.03;;;2.75;;
71838;SDS011;59687;37.520;15.068;2022-11-15T02:44:43;6.97;;;2.93;;
71838;SDS011;59687;37.520;15.068;2022-11-15T02:47:31;6.15;;;2.72;;
71838;SDS011;59687;37.520;15.068;2022-11-15T02:50:23;7.00;;;2.75;;
71838;SDS011;59687;37.520;15.068;2022-11-15T02:53:12;5.50;;;2.88;;
71838;SDS011;59687;37.520;15.068;2022-11-15T02:55:59;6.75;;;2.50;;
71838;SDS011;59687;37.520;15.068;2022-11-15T03:02:18;7.13;;;3.15;;
71838;SDS011;59687;37.520;15.068;2022-11-15T03:08:16;6.95;;;2.95;;
71838;SDS011;59687;37.520;15.068;2022-11-15T03:11:14;6.22;;;2.60;;
71838;SDS011;59687;37.520;15.068;2022-11-15T03:20:24;4.90;;;2.17;;
71838;SDS011;59687;37.520;15.068;2022-11-15T03:23:11;6.30;;;2.50;;
71838;SDS011;59687;37.520;15.068;2022-11-15T03:25:58;5.10;;;2.50;;
71838;SDS011;59687;37.520;15.068;2022-11-15T03:28:50;5.70;;;2.23;;
71838;SDS011;59687;37.520;15.068;2022-11-15T03:31:42;5.15;;;2.28;;
71838;SDS011;59687;37.520;15.068;2022-11-15T03:35:08;6.80;;;2.67;;
71838;SDS011;59687;37.520;15.068;2022-11-15T03:37:57;7.03;;;2.72;;
71838;SDS011;59687;37.520;15.068;2022-11-15T03:40:53;6.03;;;3.00;;
71838;SDS011;59687;37.520;15.068;2022-11-15T03:43:53;5.97;;;3.13;;
71838;SDS011;59687;37.520;15.068;2022-11-15T03:46:49;6.03;;;2.72;;
71838;SDS011;59687;37.520;15.068;2022-11-15T03:49:55;5.10;;;2.30;;
71838;SDS011;59687;37.520;15.068;2022-11-15T03:52:45;5.82;;;2.67;;
71838;SDS011;59687;37.520;15.068;2022-11-15T03:55:33;6.15;;;2.97;;
71838;SDS011;59687;37.520;15.068;2022-11-15T03:58:19;5.43;;;2.47;;
71838;SDS011;59687;37.520;15.068;2022-11-15T04:01:04;6.55;;;2.83;;
71838;SDS011;59687;37.520;15.068;2022-11-15T04:03:51;4.68;;;2.05;;
71838;SDS011;59687;37.520;15.068;2022-11-15T04:06:38;6.00;;;2.15;;
71838;SDS011;59687;37.520;15.068;2022-11-15T04:09:23;6.05;;;2.30;;
71838;SDS011;59687;37.520;15.068;2022-11-15T04:12:09;5.17;;;1.90;;
71838;SDS011;59687;37.520;15.068;2022-11-15T04:14:54;5.07;;;2.10;;
71838;SDS011;59687;37.520;15.068;2022-11-15T04:17:52;5.35;;;1.83;;
71838;SDS011;59687;37.520;15.068;2022-11-15T04:20:41;5.57;;;2.00;;
71838;SDS011;59687;37.520;15.068;2022-11-15T04:23:44;5.25;;;2.40;;
71838;SDS011;59687;37.520;15.068;2022-11-15T04:26:48;6.03;;;2.40;;
71838;SDS011;59687;37.520;15.068;2022-11-15T04:29:34;5.75;;;2.60;;
71838;SDS011;59687;37.520;15.068;2022-11-15T04:32:19;6.72;;;2.78;;
71838;SDS011;59687;37.520;15.068;2022-11-15T04:35:06;5.55;;;2.47;;
71838;SDS011;59687;37.520;15.068;2022-11-15T04:37:52;6.20;;;2.72;;
71838;SDS011;59687;37.520;15.068;2022-11-15T04:40:37;5.03;;;2.70;;
71838;SDS011;59687;37.520;15.068;2022-11-15T04:43:25;5.97;;;2.50;;
71838;SDS011;59687;37.520;15.068;2022-11-15T04:46:10;5.75;;;2.53;;
71838;SDS011;59687;37.520;15.068;2022-11-15T04:48:56;5.82;;;2.75;;
71838;SDS011;59687;37.520;15.068;2022-11-15T04:51:42;6.22;;;3.05;;
71838;SDS011;59687;37.520;15.068;2022-11-15T04:54:28;5.33;;;2.80;;
71838;SDS011;59687;37.520;15.068;2022-11-15T04:57:15;6.10;;;2.60;;
71838;SDS011;59687;37.520;15.068;2022-11-15T05:00:01;5.30;;;3.17;;
71838;SDS011;59687;37.520;15.068;2022-11-15T05:02:48;5.82;;;2.88;;
71838;SDS011;59687;37.520;15.068;2022-11-15T05:05:52;7.20;;;3.17;;
71838;SDS011;59687;37.520;15.068;2022-11-15T05:08:37;5.97;;;3.07;;
71838;SDS011;59687;37.520;15.068;2022-11-15T05:11:23;6.47;;;2.95;;
71838;SDS011;59687;37.520;15.068;2022-11-15T05:14:09;6.50;;;3.20;;
71838;SDS011;59687;37.520;15.068;2022-11-15T05:16:55;7.72;;;3.55;;
71838;SDS011;59687;37.520;15.068;2022-11-15T05:19:41;6.32;;;3.28;;
71838;SDS011;59687;37.520;15.068;2022-11-15T05:22:27;7.53;;;3.77;;
71838;SDS011;59687;37.520;15.068;2022-11-15T05:25:12;14.20;;;4.32;;
71838;SDS011;59687;37.520;15.068;2022-11-15T05:27:59;7.72;;;4.10;;
71838;SDS011;59687;37.520;15.068;2022-11-15T05:30:44;9.35;;;4.40;;
71838;SDS011;59687;37.520;15.068;2022-11-15T05:33:31;7.45;;;3.97;;
71838;SDS011;59687;37.520;15.068;2022-11-15T05:39:26;7.85;;;4.13;;
71838;SDS011;59687;37.520;15.068;2022-11-15T05:42:11;9.65;;;4.20;;
71838;SDS011;59687;37.520;15.068;2022-11-15T05:44:59;7.50;;;3.83;;
71838;SDS011;59687;37.520;15.068;2022-11-15T05:47:48;7.93;;;4.13;;
71838;SDS011;59687;37.520;15.068;2022-11-15T05:50:38;8.13;;;4.43;;
71838;SDS011;59687;37.520;15.068;2022-11-15T05:53:29;8.30;;;4.45;;
71838;SDS011;59687;37.520;15.068;2022-11-15T05:56:15;8.73;;;4.35;;
71838;SDS011;59687;37.520;15.068;2022-11-15T05:59:01;8.20;;;4.80;;
71838;SDS011;59687;37.520;15.068;2022-11-15T06:01:47;8.90;;;4.57;;
71838;SDS011;59687;37.520;15.068;2022-11-15T06:04:35;10.17;;;4.60;;
71838;SDS011;59687;37.520;15.068;2022-11-15T06:07:20;6.88;;;3.92;;
71838;SDS011;59687;37.520;15.068;2022-11-15T06:10:07;10.20;;;4.63;;
71838;SDS011;59687;37.520;15.068;2022-11-15T06:13:00;7.60;;;4.57;;
71838;SDS011;59687;37.520;15.068;2022-11-15T06:15:47;7.35;;;4.03;;
71838;SDS011;59687;37.520;15.068;2022-11-15T06:18:33;7.50;;;4.27;;
71838;SDS011;59687;37.520;15.068;2022-11-15T06:21:21;8.00;;;4.20;;
71838;SDS011;59687;37.520;15.068;2022-11-15T06:24:07;10.20;;;4.03;;
71838;SDS011;59687;37.520;15.068;2022-11-15T06:26:52;7.57;;;4.30;;
71838;SDS011;59687;37.520;15.068;2022-11-15T06:29:38;7.53;;;3.90;;
71838;SDS011;59687;37.520;15.068;2022-11-15T06:32:24;7.50;;;3.93;;
71838;SDS011;59687;37.520;15.068;2022-11-15T06:35:10;8.70;;;4.40;;
71838;SDS011;59687;37.520;15.068;2022-11-15T06:37:59;7.80;;;3.83;;
71838;SDS011;59687;37.520;15.068;2022-11-15T06:40:48;8.50;;;4.07;;
71838;SDS011;59687;37.520;15.068;2022-11-15T06:43:35;8.57;;;4.00;;
71838;SDS011;59687;37.520;15.068;2022-11-15T06:46:21;8.17;;;4.37;;
71838;SDS011;59687;37.520;15.068;2022-11-15T06:49:07;7.55;;;3.30;;
71838;SDS011;59687;37.520;15.068;2022-11-15T06:51:53;7.40;;;3.75;;
71838;SDS011;59687;37.520;15.068;2022-11-15T06:54:40;7.22;;;4.53;;
71838;SDS011;59687;37.520;15.068;2022-11-15T06:57:25;7.57;;;4.28;;
71838;SDS011;59687;37.520;15.068;2022-11-15T07:00:10;11.37;;;4.90;;
71838;SDS011;59687;37.520;15.068;2022-11-15T07:02:59;8.70;;;4.50;;
71838;SDS011;59687;37.520;15.068;2022-11-15T07:05:56;7.93;;;4.30;;
71838;SDS011;59687;37.520;15.068;2022-11-15T07:08:44;9.65;;;4.70;;
71838;SDS011;59687;37.520;15.068;2022-11-15T07:11:31;9.57;;;5.00;;
71838;SDS011;59687;37.520;15.068;2022-11-15T07:14:18;7.43;;;4.50;;
71838;SDS011;59687;37.520;15.068;2022-11-15T07:17:04;8.23;;;4.53;;
71838;SDS011;59687;37.520;15.068;2022-11-15T07:19:50;8.85;;;4.55;;
71838;SDS011;59687;37.520;15.068;2022-11-15T07:22:38;8.43;;;4.88;;
71838;SDS011;59687;37.520;15.068;2022-11-15T07:25:24;8.25;;;4.57;;
71838;SDS011;59687;37.520;15.068;2022-11-15T07:28:09;8.83;;;4.93;;
71838;SDS011;59687;37.520;15.068;2022-11-15T07:30:55;9.18;;;4.82;;
71838;SDS011;59687;37.520;15.068;2022-11-15T07:33:41;8.48;;;4.57;;
71838;SDS011;59687;37.520;15.068;2022-11-15T07:36:27;9.10;;;4.95;;
71838;SDS011;59687;37.520;15.068;2022-11-15T07:39:13;8.68;;;4.65;;
71838;SDS011;59687;37.520;15.068;2022-11-15T07:42:00;7.57;;;4.40;;
71838;SDS011;59687;37.520;15.068;2022-11-15T07:45:04;7.78;;;4.70;;
71838;SDS011;59687;37.520;15.068;2022-11-15T07:47:50;9.00;;;4.70;;
71838;SDS011;59687;37.520;15.068;2022-11-15T07:50:39;7.50;;;4.70;;
71838;SDS011;59687;37.520;15.068;2022-11-15T07:53:25;8.70;;;5.78;;
71838;SDS011;59687;37.520;15.068;2022-11-15T07:56:11;9.60;;;5.57;;
71838;SDS011;59687;37.520;15.068;2022-11-15T07:58:56;9.27;;;4.60;;
71838;SDS011;59687;37.520;15.068;2022-11-15T08:01:42;9.32;;;5.10;;
71838;SDS011;59687;37.520;15.068;2022-11-15T08:04:32;8.60;;;4.95;;
71838;SDS011;59687;37.520;15.068;2022-11-15T08:07:18;6.88;;;4.10;;
71838;SDS011;59687;37.520;15.068;2022-11-15T08:10:04;8.67;;;4.03;;
71838;SDS011;59687;37.520;15.068;2022-11-15T08:13:01;8.77;;;3.95;;
71838;SDS011;59687;37.520;15.068;2022-11-15T08:15:48;6.65;;;3.58;;
71838;SDS011;59687;37.520;15.068;2022-11-15T08:18:35;7.85;;;4.13;;
71838;SDS011;59687;37.520;15.068;2022-11-15T08:21:21;8.73;;;4.57;;
71838;SDS011;59687;37.520;15.068;2022-11-15T08:24:08;5.20;;;2.90;;
71838;SDS011;59687;37.520;15.068;2022-11-15T08:26:55;6.47;;;3.20;;
71838;SDS011;59687;37.520;15.068;2022-11-15T08:29:41;6.63;;;3.55;;
71838;SDS011;59687;37.520;15.068;2022-11-15T08:32:27;7.18;;;3.50;;
71838;SDS011;59687;37.520;15.068;2022-11-15T08:35:13;6.22;;;2.88;;
71838;SDS011;59687;37.520;15.068;2022-11-15T08:38:00;6.77;;;3.10;;
71838;SDS011;59687;37.520;15.068;2022-11-15T08:40:46;7.40;;;3.33;;
71838;SDS011;59687;37.520;15.068;2022-11-15T08:43:32;9.27;;;4.22;;
71838;SDS011;59687;37.520;15.068;2022-11-15T08:46:19;8.68;;;3.83;;
71838;SDS011;59687;37.520;15.068;2022-11-15T08:49:05;6.68;;;3.53;;
71838;SDS011;59687;37.520;15.068;2022-11-15T08:51:50;6.50;;;3.70;;
71838;SDS011;59687;37.520;15.068;2022-11-15T08:54:36;7.15;;;3.78;;
71838;SDS011;59687;37.520;15.068;2022-11-15T08:57:21;6.35;;;3.50;;
71838;SDS011;59687;37.520;15.068;2022-11-15T09:00:06;7.75;;;3.85;;
71838;SDS011;59687;37.520;15.068;2022-11-15T09:02:53;8.63;;;3.90;;
71838;SDS011;59687;37.520;15.068;2022-11-15T09:05:38;7.33;;;4.00;;
71838;SDS011;59687;37.520;15.068;2022-11-15T09:08:24;7.63;;;4.18;;
71838;SDS011;59687;37.520;15.068;2022-11-15T09:11:29;6.13;;;3.33;;
71838;SDS011;59687;37.520;15.068;2022-11-15T09:14:15;6.35;;;3.75;;
71838;SDS011;59687;37.520;15.068;2022-11-15T09:17:01;7.25;;;3.25;;
71838;SDS011;59687;37.520;15.068;2022-11-15T09:19:47;7.17;;;3.70;;
71838;SDS011;59687;37.520;15.068;2022-11-15T09:22:32;6.75;;;3.30;;
71838;SDS011;59687;37.520;15.068;2022-11-15T09:25:18;7.00;;;3.55;;
71838;SDS011;59687;37.520;15.068;2022-11-15T09:28:07;6.15;;;3.10;;
71838;SDS011;59687;37.520;15.068;2022-11-15T09:31:01;8.25;;;3.13;;
71838;SDS011;59687;37.520;15.068;2022-11-15T09:33:48;7.97;;;3.17;;
71838;SDS011;59687;37.520;15.068;2022-11-15T09:36:35;5.88;;;2.88;;
71838;SDS011;59687;37.520;15.068;2022-11-15T09:39:20;6.03;;;3.05;;
71838;SDS011;59687;37.520;15.068;2022-11-15T09:42:20;16.40;;;10.07;;
71838;SDS011;59687;37.520;15.068;2022-11-15T09:45:28;12.27;;;8.40;;
71838;SDS011;59687;37.520;15.068;2022-11-15T09:48:49;10.47;;;7.33;;
71838;SDS011;59687;37.520;15.068;2022-11-15T09:51:38;14.18;;;7.95;;
71838;SDS011;59687;37.520;15.068;2022-11-15T09:57:24;12.23;;;8.13;;
71838;SDS011;59687;37.520;15.068;2022-11-15T10:03:14;11.80;;;7.73;;
71838;SDS011;59687;37.520;15.068;2022-11-15T10:05:44;12.18;;;7.63;;
71838;SDS011;59687;37.520;15.068;2022-11-15T10:10:58;11.20;;;7.85;;
71838;SDS011;59687;37.520;15.068;2022-11-15T10:14:04;11.32;;;6.68;;
71838;SDS011;59687;37.520;15.068;2022-11-15T10:20:02;12.55;;;6.60;;
71838;SDS011;59687;37.520;15.068;2022-11-15T10:30:48;8.33;;;4.93;;
71838;SDS011;59687;37.520;15.068;2022-11-15T10:33:36;9.32;;;4.90;;
71838;SDS011;59687;37.520;15.068;2022-11-15T10:41:29;8.10;;;5.10;;
71838;SDS011;59687;37.520;15.068;2022-11-15T10:44:07;10.10;;;6.00;;
71838;SDS011;59687;37.520;15.068;2022-11-15T10:46:45;9.32;;;5.28;;
71838;SDS011;59687;37.520;15.068;2022-11-15T10:49:16;8.98;;;4.07;;
71838;SDS011;59687;37.520;15.068;2022-11-15T10:51:51;8.57;;;4.35;;
71838;SDS011;59687;37.520;15.068;2022-11-15T10:57:19;7.57;;;3.97;;
71838;SDS011;59687;37.520;15.068;2022-11-15T10:59:49;7.32;;;3.80;;
71838;SDS011;59687;37.520;15.068;2022-11-15T11:02:27;9.68;;;3.80;;
71838;SDS011;59687;37.520;15.068;2022-11-15T11:04:57;7.47;;;3.45;;
71838;SDS011;59687;37.520;15.068;2022-11-15T11:07:26;7.47;;;3.28;;
71838;SDS011;59687;37.520;15.068;2022-11-15T11:10:03;8.13;;;3.30;;
71838;SDS011;59687;37.520;15.068;2022-11-15T11:13:23;6.22;;;3.38;;
71838;SDS011;59687;37.520;15.068;2022-11-15T11:25:04;6.57;;;3.20;;
71838;SDS011;59687;37.520;15.068;2022-11-15T11:33:17;6.75;;;2.63;;
71838;SDS011;59687;37.520;15.068;2022-11-15T11:38:58;5.57;;;3.07;;
71838;SDS011;59687;37.520;15.068;2022-11-15T11:41:38;6.25;;;2.75;;
71838;SDS011;59687;37.520;15.068;2022-11-15T11:44:28;6.82;;;2.65;;
71838;SDS011;59687;37.520;15.068;2022-11-15T11:47:21;5.82;;;2.50;;
71838;SDS011;59687;37.520;15.068;2022-11-15T11:49:51;5.35;;;2.20;;
71838;SDS011;59687;37.520;15.068;2022-11-15T11:52:26;6.20;;;2.43;;
71838;SDS011;59687;37.520;15.068;2022-11-15T11:58:19;6.07;;;2.40;;
71838;SDS011;59687;37.520;15.068;2022-11-15T12:01:16;4.40;;;2.10;;
71838;SDS011;59687;37.520;15.068;2022-11-15T12:04:14;5.15;;;1.90;;
71838;SDS011;59687;37.520;15.068;2022-11-15T12:09:44;5.75;;;2.20;;
71838;SDS011;59687;37.520;15.068;2022-11-15T12:12:39;7.22;;;2.60;;
71838;SDS011;59687;37.520;15.068;2022-11-15T12:17:48;5.45;;;2.30;;
71838;SDS011;59687;37.520;15.068;2022-11-15T12:20:20;6.00;;;2.33;;
71838;SDS011;59687;37.520;15.068;2022-11-15T12:23:15;4.88;;;2.20;;
71838;SDS011;59687;37.520;15.068;2022-11-15T12:26:22;7.65;;;2.40;;
71838;SDS011;59687;37.520;15.068;2022-11-15T12:29:11;5.40;;;2.10;;
71838;SDS011;59687;37.520;15.068;2022-11-15T12:31:48;5.85;;;2.42;;
71838;SDS011;59687;37.520;15.068;2022-11-15T12:36:50;5.63;;;2.50;;
71838;SDS011;59687;37.520;15.068;2022-11-15T12:39:18;4.45;;;2.40;;
71838;SDS011;59687;37.520;15.068;2022-11-15T12:52:05;6.97;;;3.30;;
71838;SDS011;59687;37.520;15.068;2022-11-15T12:59:57;6.33;;;2.90;;
71838;SDS011;59687;37.520;15.068;2022-11-15T13:17:48;5.80;;;2.90;;
71838;SDS011;59687;37.520;15.068;2022-11-15T13:20:25;5.57;;;3.05;;
71838;SDS011;59687;37.520;15.068;2022-11-15T13:23:14;6.68;;;3.10;;
71838;SDS011;59687;37.520;15.068;2022-11-15T13:26:02;8.33;;;3.37;;
71838;SDS011;59687;37.520;15.068;2022-11-15T13:28:47;6.60;;;2.50;;
71838;SDS011;59687;37.520;15.068;2022-11-15T13:34:03;6.18;;;2.50;;
71838;SDS011;59687;37.520;15.068;2022-11-15T13:37:02;6.45;;;2.55;;
71838;SDS011;59687;37.520;15.068;2022-11-15T13:39:33;6.47;;;2.63;;
71838;SDS011;59687;37.520;15.068;2022-11-15T13:42:03;6.75;;;2.50;;
71838;SDS011;59687;37.520;15.068;2022-11-15T13:44:32;6.97;;;2.47;;
71838;SDS011;59687;37.520;15.068;2022-11-15T13:47:04;5.50;;;2.65;;
71838;SDS011;59687;37.520;15.068;2022-11-15T13:49:41;6.85;;;3.00;;
71838;SDS011;59687;37.520;15.068;2022-11-15T13:52:10;5.47;;;2.50;;
71838;SDS011;59687;37.520;15.068;2022-11-15T13:54:42;5.60;;;3.25;;
71838;SDS011;59687;37.520;15.068;2022-11-15T13:57:22;7.13;;;2.83;;
71838;SDS011;59687;37.520;15.068;2022-11-15T13:59:52;6.00;;;2.47;;
71838;SDS011;59687;37.520;15.068;2022-11-15T14:02:30;5.65;;;2.83;;
71838;SDS011;59687;37.520;15.068;2022-11-15T14:05:05;4.73;;;2.60;;
71838;SDS011;59687;37.520;15.068;2022-11-15T14:07:57;5.40;;;2.80;;
71838;SDS011;59687;37.520;15.068;2022-11-15T14:10:29;6.03;;;2.50;;
71838;SDS011;59687;37.520;15.068;2022-11-15T14:13:26;5.45;;;2.55;;
71838;SDS011;59687;37.520;15.068;2022-11-15T14:15:54;7.05;;;3.10;;
71838;SDS011;59687;37.520;15.068;2022-11-15T14:18:47;5.70;;;2.67;;
71838;SDS011;59687;37.520;15.068;2022-11-15T14:21:15;6.85;;;3.17;;
71838;SDS011;59687;37.520;15.068;2022-11-15T14:23:46;8.23;;;3.10;;
71838;SDS011;59687;37.520;15.068;2022-11-15T14:26:29;6.95;;;2.80;;
71838;SDS011;59687;37.520;15.068;2022-11-15T14:31:50;6.70;;;3.07;;
71838;SDS011;59687;37.520;15.068;2022-11-15T14:34:17;7.78;;;3.70;;
71838;SDS011;59687;37.520;15.068;2022-11-15T14:36:44;10.43;;;5.20;;
71838;SDS011;59687;37.520;15.068;2022-11-15T14:39:11;8.98;;;4.20;;
71838;SDS011;59687;37.520;15.068;2022-11-15T14:41:38;6.55;;;3.97;;
71838;SDS011;59687;37.520;15.068;2022-11-15T14:44:09;8.20;;;4.33;;
71838;SDS011;59687;37.520;15.068;2022-11-15T14:46:37;8.73;;;4.50;;
71838;SDS011;59687;37.520;15.068;2022-11-15T14:49:04;8.57;;;4.05;;
71838;SDS011;59687;37.520;15.068;2022-11-15T14:51:31;8.80;;;4.00;;
71838;SDS011;59687;37.520;15.068;2022-11-15T14:53:59;8.25;;;4.03;;
71838;SDS011;59687;37.520;15.068;2022-11-15T14:56:27;9.57;;;4.70;;
71838;SDS011;59687;37.520;15.068;2022-11-15T14:58:54;9.95;;;6.07;;
71838;SDS011;59687;37.520;15.068;2022-11-15T15:01:24;9.77;;;5.50;;
71838;SDS011;59687;37.520;15.068;2022-11-15T15:03:52;10.90;;;5.20;;
71838;SDS011;59687;37.520;15.068;2022-11-15T15:06:25;8.77;;;5.00;;
71838;SDS011;59687;37.520;15.068;2022-11-15T15:08:52;9.50;;;5.40;;
71838;SDS011;59687;37.520;15.068;2022-11-15T15:11:24;8.52;;;4.63;;
71838;SDS011;59687;37.520;15.068;2022-11-15T15:14:07;10.18;;;5.35;;
71838;SDS011;59687;37.520;15.068;2022-11-15T15:16:36;9.40;;;5.78;;
71838;SDS011;59687;37.520;15.068;2022-11-15T15:19:04;9.38;;;5.53;;
71838;SDS011;59687;37.520;15.068;2022-11-15T15:21:31;8.43;;;5.60;;
71838;SDS011;59687;37.520;15.068;2022-11-15T15:24:02;9.43;;;5.47;;
71838;SDS011;59687;37.520;15.068;2022-11-15T15:26:30;11.30;;;5.88;;
71838;SDS011;59687;37.520;15.068;2022-11-15T15:29:02;9.23;;;5.22;;
71838;SDS011;59687;37.520;15.068;2022-11-15T15:31:30;10.07;;;5.32;;
71838;SDS011;59687;37.520;15.068;2022-11-15T15:33:59;11.23;;;5.93;;
71838;SDS011;59687;37.520;15.068;2022-11-15T15:36:26;11.05;;;5.85;;
71838;SDS011;59687;37.520;15.068;2022-11-15T15:38:54;10.18;;;5.50;;
71838;SDS011;59687;37.520;15.068;2022-11-15T15:41:22;8.75;;;5.00;;
71838;SDS011;59687;37.520;15.068;2022-11-15T15:43:55;10.48;;;5.03;;
71838;SDS011;59687;37.520;15.068;2022-11-15T15:46:25;9.00;;;5.63;;
71838;SDS011;59687;37.520;15.068;2022-11-15T15:48:52;10.40;;;4.90;;
71838;SDS011;59687;37.520;15.068;2022-11-15T15:51:21;10.77;;;5.22;;
71838;SDS011;59687;37.520;15.068;2022-11-15T15:53:48;9.55;;;5.13;;
71838;SDS011;59687;37.520;15.068;2022-11-15T15:56:17;8.18;;;4.90;;
71838;SDS011;59687;37.520;15.068;2022-11-15T15:58:47;11.53;;;4.83;;
71838;SDS011;59687;37.520;15.068;2022-11-15T16:01:16;11.88;;;5.78;;
71838;SDS011;59687;37.520;15.068;2022-11-15T16:03:46;10.27;;;5.35;;
71838;SDS011;59687;37.520;15.068;2022-11-15T16:06:25;9.57;;;5.80;;
71838;SDS011;59687;37.520;15.068;2022-11-15T16:09:02;13.15;;;6.28;;
71838;SDS011;59687;37.520;15.068;2022-11-15T16:11:45;11.30;;;6.40;;
71838;SDS011;59687;37.520;15.068;2022-11-15T16:14:15;10.98;;;6.55;;
71838;SDS011;59687;37.520;15.068;2022-11-15T16:16:42;12.13;;;6.47;;
71838;SDS011;59687;37.520;15.068;2022-11-15T16:19:23;15.10;;;7.50;;
71838;SDS011;59687;37.520;15.068;2022-11-15T16:21:51;15.23;;;7.45;;
71838;SDS011;59687;37.520;15.068;2022-11-15T16:24:21;12.53;;;7.50;;
71838;SDS011;59687;37.520;15.068;2022-11-15T16:26:51;14.45;;;8.63;;
71838;SDS011;59687;37.520;15.068;2022-11-15T16:29:18;15.57;;;9.07;;
71838;SDS011;59687;37.520;15.068;2022-11-15T16:31:45;13.40;;;8.40;;
71838;SDS011;59687;37.520;15.068;2022-11-15T16:34:14;13.15;;;8.52;;
71838;SDS011;59687;37.520;15.068;2022-11-15T16:36:43;14.03;;;8.97;;
71838;SDS011;59687;37.520;15.068;2022-11-15T16:39:11;16.90;;;9.77;;
71838;SDS011;59687;37.520;15.068;2022-11-15T16:41:43;16.20;;;9.35;;
71838;SDS011;59687;37.520;15.068;2022-11-15T16:44:13;14.50;;;8.80;;
71838;SDS011;59687;37.520;15.068;2022-11-15T16:46:40;15.25;;;8.57;;
71838;SDS011;59687;37.520;15.068;2022-11-15T16:49:12;13.40;;;9.13;;
71838;SDS011;59687;37.520;15.068;2022-11-15T16:51:41;20.98;;;8.98;;
71838;SDS011;59687;37.520;15.068;2022-11-15T16:54:14;17.85;;;8.85;;
71838;SDS011;59687;37.520;15.068;2022-11-15T16:56:41;13.70;;;8.65;;
71838;SDS011;59687;37.520;15.068;2022-11-15T16:59:14;14.98;;;8.65;;
71838;SDS011;59687;37.520;15.068;2022-11-15T17:01:46;14.70;;;8.97;;
71838;SDS011;59687;37.520;15.068;2022-11-15T17:04:19;13.85;;;8.30;;
71838;SDS011;59687;37.520;15.068;2022-11-15T17:06:49;13.60;;;8.68;;
71838;SDS011;59687;37.520;15.068;2022-11-15T17:09:20;18.55;;;9.98;;
71838;SDS011;59687;37.520;15.068;2022-11-15T17:11:51;15.15;;;9.27;;
71838;SDS011;59687;37.520;15.068;2022-11-15T17:14:20;14.63;;;9.50;;
71838;SDS011;59687;37.520;15.068;2022-11-15T17:16:47;15.80;;;8.95;;
71838;SDS011;59687;37.520;15.068;2022-11-15T17:19:16;18.23;;;9.77;;
71838;SDS011;59687;37.520;15.068;2022-11-15T17:21:46;16.38;;;9.35;;
71838;SDS011;59687;37.520;15.068;2022-11-15T17:24:15;13.82;;;8.93;;
71838;SDS011;59687;37.520;15.068;2022-11-15T17:26:48;11.70;;;7.00;;
71838;SDS011;59687;37.520;15.068;2022-11-15T17:29:15;12.38;;;7.82;;
71838;SDS011;59687;37.520;15.068;2022-11-15T17:31:42;13.77;;;9.52;;
71838;SDS011;59687;37.520;15.068;2022-11-15T17:34:12;10.07;;;7.03;;
71838;SDS011;59687;37.520;15.068;2022-11-15T17:36:39;12.00;;;7.15;;
71838;SDS011;59687;37.520;15.068;2022-11-15T17:39:06;15.50;;;8.40;;
71838;SDS011;59687;37.520;15.068;2022-11-15T17:41:37;13.15;;;8.02;;
71838;SDS011;59687;37.520;15.068;2022-11-15T17:44:05;13.15;;;7.43;;
71838;SDS011;59687;37.520;15.068;2022-11-15T17:46:32;13.57;;;7.20;;
71838;SDS011;59687;37.520;15.068;2022-11-15T17:49:02;11.75;;;6.43;;
71838;SDS011;59687;37.520;15.068;2022-11-15T17:51:32;12.97;;;7.00;;
71838;SDS011;59687;37.520;15.068;2022-11-15T17:53:59;12.05;;;7.00;;
71838;SDS011;59687;37.520;15.068;2022-11-15T17:56:27;11.68;;;7.10;;
71838;SDS011;59687;37.520;15.068;2022-11-15T17:59:00;12.40;;;6.90;;
71838;SDS011;59687;37.520;15.068;2022-11-15T18:01:32;10.38;;;7.10;;
71838;SDS011;59687;37.520;15.068;2022-11-15T18:04:04;11.17;;;6.60;;
71838;SDS011;59687;37.520;15.068;2022-11-15T18:06:34;11.65;;;6.43;;